sensor_id;sensor_type;location;lat;lon;timestamp;P1;durP1;ratioP1;P2;durP2;ratioP2
9372;SDS011;10838;52.350;9.790;2023-05-07T00:02:04;18.07;;;14.23;;
9372;SDS011;10838;52.350;9.790;2023-05-07T00:04:32;16.93;;;14.00;;
9372;SDS011;10838;52.350;9.790;2023-05-07T00:07:02;19.23;;;14.63;;
9372;SDS011;10838;52.350;9.790;2023-05-07T00:09:30;17.67;;;13.80;;
9372;SDS011;10838;52.350;9.790;2023-05-07T00:11:57;17.17;;;14.57;;
9372;SDS011;10838;52.350;9.790;2023-05-07T00:14:23;18.93;;;14.77;;
9372;SDS011;10838;52.350;9.790;2023-05-07T00:16:50;16.30;;;14.53;;
9372;SDS011;10838;52.350;9.790;2023-05-07T00:19:17;19.67;;;15.30;;
9372;SDS011;10838;52.350;9.790;2023-05-07T00:21:43;17.00;;;14.07;;
9372;SDS011;10838;52.350;9.790;2023-05-07T00:24:10;16.87;;;14.87;;
9372;SDS011;10838;52.350;9.790;2023-05-07T00:26:38;17.53;;;15.20;;
9372;SDS011;10838;52.350;9.790;2023-05-07T00:29:04;18.00;;;14.60;;
9372;SDS011;10838;52.350;9.790;2023-05-07T00:31:31;19.63;;;15.87;;
9372;SDS011;10838;52.350;9.790;2023-05-07T00:33:57;17.70;;;15.53;;
9372;SDS011;10838;52.350;9.790;2023-05-07T00:36:24;17.87;;;15.07;;
9372;SDS011;10838;52.350;9.790;2023-05-07T00:38:51;17.87;;;15.17;;
9372;SDS011;10838;52.350;9.790;2023-05-07T00:41:17;18.47;;;15.27;;
9372;SDS011;10838;52.350;9.790;2023-05-07T00:43:46;20.37;;;15.63;;
9372;SDS011;10838;52.350;9.790;2023-05-07T00:46:13;20.10;;;15.70;;
9372;SDS011;10838;52.350;9.790;2023-05-07T00:48:40;19.47;;;15.67;;
9372;SDS011;10838;52.350;9.790;2023-05-07T00:51:07;20.77;;;15.80;;
9372;SDS011;10838;52.350;9.790;2023-05-07T00:53:33;19.83;;;16.00;;
9372;SDS011;10838;52.350;9.790;2023-05-07T00:56:00;18.67;;;15.90;;
9372;SDS011;10838;52.350;9.790;2023-05-07T00:58:28;21.37;;;15.20;;
9372;SDS011;10838;52.350;9.790;2023-05-07T01:00:56;19.20;;;14.97;;
9372;SDS011;10838;52.350;9.790;2023-05-07T01:03:23;22.10;;;17.40;;
9372;SDS011;10838;52.350;9.790;2023-05-07T01:05:50;21.30;;;16.33;;
9372;SDS011;10838;52.350;9.790;2023-05-07T01:08:19;21.10;;;16.33;;
9372;SDS011;10838;52.350;9.790;2023-05-07T01:10:49;20.10;;;16.60;;
9372;SDS011;10838;52.350;9.790;2023-05-07T01:13:17;23.67;;;16.23;;
9372;SDS011;10838;52.350;9.790;2023-05-07T01:15:45;21.30;;;17.20;;
9372;SDS011;10838;52.350;9.790;2023-05-07T01:18:13;23.87;;;16.57;;
9372;SDS011;10838;52.350;9.790;2023-05-07T01:20:41;20.83;;;17.13;;
9372;SDS011;10838;52.350;9.790;2023-05-07T01:23:09;20.83;;;17.00;;
9372;SDS011;10838;52.350;9.790;2023-05-07T01:25:37;20.17;;;15.77;;
9372;SDS011;10838;52.350;9.790;2023-05-07T01:28:03;20.60;;;15.60;;
9372;SDS011;10838;52.350;9.790;2023-05-07T01:30:30;20.17;;;16.17;;
9372;SDS011;10838;52.350;9.790;2023-05-07T01:32:59;23.57;;;16.43;;
9372;SDS011;10838;52.350;9.790;2023-05-07T01:35:32;20.27;;;16.83;;
9372;SDS011;10838;52.350;9.790;2023-05-07T01:38:03;19.70;;;16.60;;
9372;SDS011;10838;52.350;9.790;2023-05-07T01:40:32;21.87;;;17.33;;
9372;SDS011;10838;52.350;9.790;2023-05-07T01:43:00;21.00;;;16.27;;
9372;SDS011;10838;52.350;9.790;2023-05-07T01:45:28;19.77;;;16.37;;
9372;SDS011;10838;52.350;9.790;2023-05-07T01:47:55;21.07;;;15.13;;
9372;SDS011;10838;52.350;9.790;2023-05-07T01:50:23;21.93;;;14.93;;
9372;SDS011;10838;52.350;9.790;2023-05-07T01:52:51;22.33;;;15.67;;
9372;SDS011;10838;52.350;9.790;2023-05-07T01:55:18;18.37;;;14.83;;
9372;SDS011;10838;52.350;9.790;2023-05-07T01:57:46;18.53;;;15.17;;
9372;SDS011;10838;52.350;9.790;2023-05-07T02:00:13;19.70;;;15.23;;
9372;SDS011;10838;52.350;9.790;2023-05-07T02:02:40;19.53;;;15.17;;
9372;SDS011;10838;52.350;9.790;2023-05-07T02:05:06;17.97;;;13.87;;
9372;SDS011;10838;52.350;9.790;2023-05-07T02:07:33;16.50;;;14.07;;
9372;SDS011;10838;52.350;9.790;2023-05-07T02:10:00;15.07;;;13.23;;
9372;SDS011;10838;52.350;9.790;2023-05-07T02:12:27;16.33;;;12.93;;
9372;SDS011;10838;52.350;9.790;2023-05-07T02:14:55;13.07;;;10.90;;
9372;SDS011;10838;52.350;9.790;2023-05-07T02:17:22;13.30;;;10.97;;
9372;SDS011;10838;52.350;9.790;2023-05-07T02:19:49;11.03;;;9.93;;
9372;SDS011;10838;52.350;9.790;2023-05-07T02:22:15;12.97;;;10.67;;
9372;SDS011;10838;52.350;9.790;2023-05-07T02:24:42;12.23;;;9.40;;
9372;SDS011;10838;52.350;9.790;2023-05-07T02:27:09;10.97;;;9.47;;
9372;SDS011;10838;52.350;9.790;2023-05-07T02:29:36;10.63;;;9.33;;
9372;SDS011;10838;52.350;9.790;2023-05-07T02:32:04;11.53;;;9.67;;
9372;SDS011;10838;52.350;9.790;2023-05-07T02:34:30;10.40;;;9.03;;
9372;SDS011;10838;52.350;9.790;2023-05-07T02:36:57;9.50;;;8.50;;
9372;SDS011;10838;52.350;9.790;2023-05-07T02:39:23;9.97;;;8.87;;
9372;SDS011;10838;52.350;9.790;2023-05-07T02:41:50;10.57;;;9.17;;
9372;SDS011;10838;52.350;9.790;2023-05-07T02:44:16;10.50;;;9.43;;
9372;SDS011;10838;52.350;9.790;2023-05-07T02:46:43;10.37;;;9.07;;
9372;SDS011;10838;52.350;9.790;2023-05-07T02:49:11;10.17;;;7.93;;
9372;SDS011;10838;52.350;9.790;2023-05-07T02:51:37;10.57;;;9.47;;
9372;SDS011;10838;52.350;9.790;2023-05-07T02:54:04;10.10;;;8.70;;
9372;SDS011;10838;52.350;9.790;2023-05-07T02:56:30;10.83;;;9.37;;
9372;SDS011;10838;52.350;9.790;2023-05-07T02:58:57;10.57;;;9.40;;
9372;SDS011;10838;52.350;9.790;2023-05-07T03:01:24;11.83;;;9.83;;
9372;SDS011;10838;52.350;9.790;2023-05-07T03:03:50;10.67;;;9.57;;
9372;SDS011;10838;52.350;9.790;2023-05-07T03:06:18;9.93;;;9.03;;
9372;SDS011;10838;52.350;9.790;2023-05-07T03:08:45;9.63;;;8.63;;
9372;SDS011;10838;52.350;9.790;2023-05-07T03:11:11;13.00;;;9.70;;
9372;SDS011;10838;52.350;9.790;2023-05-07T03:13:38;12.50;;;8.70;;
9372;SDS011;10838;52.350;9.790;2023-05-07T03:16:04;10.57;;;9.07;;
9372;SDS011;10838;52.350;9.790;2023-05-07T03:18:31;12.53;;;9.33;;
9372;SDS011;10838;52.350;9.790;2023-05-07T03:20:58;10.50;;;9.40;;
9372;SDS011;10838;52.350;9.790;2023-05-07T03:23:26;9.43;;;8.53;;
9372;SDS011;10838;52.350;9.790;2023-05-07T03:25:52;10.20;;;8.57;;
9372;SDS011;10838;52.350;9.790;2023-05-07T03:28:19;9.80;;;8.63;;
9372;SDS011;10838;52.350;9.790;2023-05-07T03:30:45;9.67;;;8.67;;
9372;SDS011;10838;52.350;9.790;2023-05-07T03:33:12;9.83;;;7.83;;
9372;SDS011;10838;52.350;9.790;2023-05-07T03:35:39;10.83;;;8.83;;
9372;SDS011;10838;52.350;9.790;2023-05-07T03:38:05;11.00;;;8.30;;
9372;SDS011;10838;52.350;9.790;2023-05-07T03:40:33;9.13;;;8.10;;
9372;SDS011;10838;52.350;9.790;2023-05-07T03:43:00;9.90;;;8.20;;
9372;SDS011;10838;52.350;9.790;2023-05-07T03:45:26;9.60;;;7.70;;
9372;SDS011;10838;52.350;9.790;2023-05-07T03:47:53;9.37;;;7.83;;
9372;SDS011;10838;52.350;9.790;2023-05-07T03:50:19;8.97;;;7.47;;
9372;SDS011;10838;52.350;9.790;2023-05-07T03:52:46;9.73;;;7.57;;
9372;SDS011;10838;52.350;9.790;2023-05-07T03:55:12;9.60;;;8.17;;
9372;SDS011;10838;52.350;9.790;2023-05-07T03:57:40;10.30;;;7.80;;
9372;SDS011;10838;52.350;9.790;2023-05-07T04:00:07;10.90;;;8.07;;
9372;SDS011;10838;52.350;9.790;2023-05-07T04:02:34;8.67;;;7.83;;
9372;SDS011;10838;52.350;9.790;2023-05-07T04:05:01;8.77;;;7.40;;
9372;SDS011;10838;52.350;9.790;2023-05-07T04:07:27;9.27;;;8.07;;
9372;SDS011;10838;52.350;9.790;2023-05-07T04:09:54;12.43;;;8.37;;
9372;SDS011;10838;52.350;9.790;2023-05-07T04:12:21;9.57;;;8.50;;
9372;SDS011;10838;52.350;9.790;2023-05-07T04:14:48;9.80;;;8.80;;
9372;SDS011;10838;52.350;9.790;2023-05-07T04:17:15;9.10;;;8.17;;
9372;SDS011;10838;52.350;9.790;2023-05-07T04:19:41;10.40;;;8.67;;
9372;SDS011;10838;52.350;9.790;2023-05-07T04:22:10;9.30;;;8.40;;
9372;SDS011;10838;52.350;9.790;2023-05-07T04:24:36;11.33;;;7.83;;
9372;SDS011;10838;52.350;9.790;2023-05-07T04:27:03;11.30;;;8.20;;
9372;SDS011;10838;52.350;9.790;2023-05-07T04:29:31;9.50;;;8.07;;
9372;SDS011;10838;52.350;9.790;2023-05-07T04:31:59;10.40;;;8.97;;
9372;SDS011;10838;52.350;9.790;2023-05-07T04:34:25;9.50;;;8.47;;
9372;SDS011;10838;52.350;9.790;2023-05-07T04:36:52;9.50;;;8.50;;
9372;SDS011;10838;52.350;9.790;2023-05-07T04:39:18;8.70;;;7.80;;
9372;SDS011;10838;52.350;9.790;2023-05-07T04:41:45;9.20;;;8.30;;
9372;SDS011;10838;52.350;9.790;2023-05-07T04:44:11;11.20;;;10.00;;
9372;SDS011;10838;52.350;9.790;2023-05-07T04:46:38;9.50;;;8.20;;
9372;SDS011;10838;52.350;9.790;2023-05-07T04:49:06;9.70;;;8.63;;
9372;SDS011;10838;52.350;9.790;2023-05-07T04:51:32;11.07;;;8.97;;
9372;SDS011;10838;52.350;9.790;2023-05-07T04:53:59;9.37;;;8.37;;
9372;SDS011;10838;52.350;9.790;2023-05-07T04:56:27;10.10;;;9.10;;
9372;SDS011;10838;52.350;9.790;2023-05-07T04:58:54;10.47;;;8.70;;
9372;SDS011;10838;52.350;9.790;2023-05-07T05:01:21;11.53;;;9.50;;
9372;SDS011;10838;52.350;9.790;2023-05-07T05:03:47;11.43;;;9.40;;
9372;SDS011;10838;52.350;9.790;2023-05-07T05:06:15;10.20;;;9.10;;
9372;SDS011;10838;52.350;9.790;2023-05-07T05:08:42;11.53;;;8.60;;
9372;SDS011;10838;52.350;9.790;2023-05-07T05:11:08;10.43;;;9.20;;
9372;SDS011;10838;52.350;9.790;2023-05-07T05:13:35;11.17;;;9.17;;
9372;SDS011;10838;52.350;9.790;2023-05-07T05:16:01;9.53;;;8.53;;
9372;SDS011;10838;52.350;9.790;2023-05-07T05:18:28;9.30;;;8.37;;
9372;SDS011;10838;52.350;9.790;2023-05-07T05:20:55;10.57;;;8.63;;
9372;SDS011;10838;52.350;9.790;2023-05-07T05:23:23;9.00;;;8.03;;
9372;SDS011;10838;52.350;9.790;2023-05-07T05:25:49;9.40;;;8.40;;
9372;SDS011;10838;52.350;9.790;2023-05-07T05:28:16;10.20;;;7.83;;
9372;SDS011;10838;52.350;9.790;2023-05-07T05:30:42;9.03;;;8.13;;
9372;SDS011;10838;52.350;9.790;2023-05-07T05:33:09;8.60;;;7.80;;
9372;SDS011;10838;52.350;9.790;2023-05-07T05:35:35;8.67;;;7.87;;
9372;SDS011;10838;52.350;9.790;2023-05-07T05:38:02;9.07;;;8.17;;
9372;SDS011;10838;52.350;9.790;2023-05-07T05:40:30;9.37;;;8.37;;
9372;SDS011;10838;52.350;9.790;2023-05-07T05:42:57;9.47;;;8.47;;
9372;SDS011;10838;52.350;9.790;2023-05-07T05:45:23;9.73;;;8.57;;
9372;SDS011;10838;52.350;9.790;2023-05-07T05:47:50;11.50;;;7.77;;
9372;SDS011;10838;52.350;9.790;2023-05-07T05:50:17;8.00;;;7.20;;
9372;SDS011;10838;52.350;9.790;2023-05-07T05:52:43;8.37;;;7.57;;
9372;SDS011;10838;52.350;9.790;2023-05-07T05:55:10;7.80;;;7.10;;
9372;SDS011;10838;52.350;9.790;2023-05-07T05:57:37;8.33;;;7.53;;
9372;SDS011;10838;52.350;9.790;2023-05-07T06:00:05;8.37;;;7.57;;
9372;SDS011;10838;52.350;9.790;2023-05-07T06:02:33;8.60;;;7.80;;
9372;SDS011;10838;52.350;9.790;2023-05-07T06:04:59;8.27;;;7.50;;
9372;SDS011;10838;52.350;9.790;2023-05-07T06:07:26;7.80;;;7.10;;
9372;SDS011;10838;52.350;9.790;2023-05-07T06:09:52;7.87;;;7.13;;
9372;SDS011;10838;52.350;9.790;2023-05-07T06:12:20;8.37;;;6.87;;
9372;SDS011;10838;52.350;9.790;2023-05-07T06:14:48;8.43;;;7.63;;
9372;SDS011;10838;52.350;9.790;2023-05-07T06:17:14;8.53;;;7.63;;
9372;SDS011;10838;52.350;9.790;2023-05-07T06:19:41;7.93;;;7.20;;
9372;SDS011;10838;52.350;9.790;2023-05-07T06:22:07;8.27;;;7.57;;
9372;SDS011;10838;52.350;9.790;2023-05-07T06:24:34;8.80;;;6.70;;
9372;SDS011;10838;52.350;9.790;2023-05-07T06:27:01;7.77;;;7.07;;
9372;SDS011;10838;52.350;9.790;2023-05-07T06:29:28;7.77;;;6.97;;
9372;SDS011;10838;52.350;9.790;2023-05-07T06:32:02;7.20;;;6.50;;
9372;SDS011;10838;52.350;9.790;2023-05-07T06:34:32;7.80;;;7.10;;
9372;SDS011;10838;52.350;9.790;2023-05-07T06:36:59;6.87;;;6.27;;
9372;SDS011;10838;52.350;9.790;2023-05-07T06:39:25;6.47;;;5.97;;
9372;SDS011;10838;52.350;9.790;2023-05-07T06:41:52;7.00;;;6.50;;
9372;SDS011;10838;52.350;9.790;2023-05-07T06:44:18;6.87;;;6.17;;
9372;SDS011;10838;52.350;9.790;2023-05-07T06:46:45;6.67;;;6.17;;
9372;SDS011;10838;52.350;9.790;2023-05-07T06:49:13;6.93;;;6.30;;
9372;SDS011;10838;52.350;9.790;2023-05-07T06:51:40;6.73;;;6.13;;
9372;SDS011;10838;52.350;9.790;2023-05-07T06:54:06;7.53;;;6.83;;
9372;SDS011;10838;52.350;9.790;2023-05-07T06:56:33;8.97;;;6.97;;
9372;SDS011;10838;52.350;9.790;2023-05-07T06:59:00;7.77;;;6.60;;
9372;SDS011;10838;52.350;9.790;2023-05-07T07:01:27;8.53;;;7.83;;
9372;SDS011;10838;52.350;9.790;2023-05-07T07:03:54;8.23;;;7.53;;
9372;SDS011;10838;52.350;9.790;2023-05-07T07:06:22;8.37;;;7.57;;
9372;SDS011;10838;52.350;9.790;2023-05-07T07:08:48;8.40;;;7.67;;
9372;SDS011;10838;52.350;9.790;2023-05-07T07:11:15;8.70;;;7.93;;
9372;SDS011;10838;52.350;9.790;2023-05-07T07:13:41;9.17;;;8.27;;
9372;SDS011;10838;52.350;9.790;2023-05-07T07:16:08;10.33;;;9.33;;
9372;SDS011;10838;52.350;9.790;2023-05-07T07:18:35;10.13;;;9.23;;
9372;SDS011;10838;52.350;9.790;2023-05-07T07:21:02;9.97;;;9.07;;
9372;SDS011;10838;52.350;9.790;2023-05-07T07:23:29;10.07;;;9.17;;
9372;SDS011;10838;52.350;9.790;2023-05-07T07:25:56;11.00;;;10.00;;
9372;SDS011;10838;52.350;9.790;2023-05-07T07:28:23;11.50;;;10.40;;
9372;SDS011;10838;52.350;9.790;2023-05-07T07:30:49;11.37;;;9.37;;
9372;SDS011;10838;52.350;9.790;2023-05-07T07:33:16;11.10;;;10.10;;
9372;SDS011;10838;52.350;9.790;2023-05-07T07:35:42;10.47;;;9.47;;
9372;SDS011;10838;52.350;9.790;2023-05-07T07:38:09;10.90;;;9.80;;
9372;SDS011;10838;52.350;9.790;2023-05-07T07:40:37;10.90;;;9.93;;
9372;SDS011;10838;52.350;9.790;2023-05-07T07:43:03;10.20;;;9.27;;
9372;SDS011;10838;52.350;9.790;2023-05-07T07:45:31;9.63;;;8.73;;
9372;SDS011;10838;52.350;9.790;2023-05-07T07:47:57;9.73;;;8.83;;
9372;SDS011;10838;52.350;9.790;2023-05-07T07:50:24;10.70;;;9.47;;
9372;SDS011;10838;52.350;9.790;2023-05-07T07:52:50;10.00;;;9.10;;
9372;SDS011;10838;52.350;9.790;2023-05-07T07:55:19;10.33;;;9.43;;
9372;SDS011;10838;52.350;9.790;2023-05-07T07:57:49;11.03;;;10.03;;
9372;SDS011;10838;52.350;9.790;2023-05-07T08:00:16;11.17;;;10.17;;
9372;SDS011;10838;52.350;9.790;2023-05-07T08:02:42;10.57;;;9.67;;
9372;SDS011;10838;52.350;9.790;2023-05-07T08:05:09;9.50;;;8.70;;
9372;SDS011;10838;52.350;9.790;2023-05-07T08:07:36;9.77;;;8.63;;
9372;SDS011;10838;52.350;9.790;2023-05-07T08:10:02;9.70;;;8.63;;
9372;SDS011;10838;52.350;9.790;2023-05-07T08:12:29;9.03;;;7.87;;
9372;SDS011;10838;52.350;9.790;2023-05-07T08:14:57;9.17;;;8.13;;
9372;SDS011;10838;52.350;9.790;2023-05-07T08:17:24;7.77;;;7.17;;
9372;SDS011;10838;52.350;9.790;2023-05-07T08:19:50;10.23;;;9.23;;
9372;SDS011;10838;52.350;9.790;2023-05-07T08:22:17;10.57;;;9.57;;
9372;SDS011;10838;52.350;9.790;2023-05-07T08:24:44;11.10;;;10.00;;
9372;SDS011;10838;52.350;9.790;2023-05-07T08:27:10;11.10;;;10.00;;
9372;SDS011;10838;52.350;9.790;2023-05-07T08:29:37;10.60;;;9.60;;
9372;SDS011;10838;52.350;9.790;2023-05-07T08:32:05;10.33;;;8.70;;
9372;SDS011;10838;52.350;9.790;2023-05-07T08:34:31;9.00;;;8.20;;
9372;SDS011;10838;52.350;9.790;2023-05-07T08:36:58;8.27;;;7.47;;
9372;SDS011;10838;52.350;9.790;2023-05-07T08:39:25;8.63;;;7.73;;
9372;SDS011;10838;52.350;9.790;2023-05-07T08:41:51;8.07;;;7.20;;
9372;SDS011;10838;52.350;9.790;2023-05-07T08:44:22;8.50;;;7.70;;
9372;SDS011;10838;52.350;9.790;2023-05-07T08:46:48;8.67;;;7.87;;
9372;SDS011;10838;52.350;9.790;2023-05-07T08:49:20;8.97;;;8.17;;
9372;SDS011;10838;52.350;9.790;2023-05-07T08:51:46;9.03;;;8.20;;
9372;SDS011;10838;52.350;9.790;2023-05-07T08:54:15;8.07;;;7.37;;
9372;SDS011;10838;52.350;9.790;2023-05-07T08:56:42;8.43;;;7.27;;
9372;SDS011;10838;52.350;9.790;2023-05-07T08:59:09;8.27;;;7.43;;
9372;SDS011;10838;52.350;9.790;2023-05-07T09:01:36;9.00;;;8.10;;
9372;SDS011;10838;52.350;9.790;2023-05-07T09:04:03;8.47;;;7.77;;
9372;SDS011;10838;52.350;9.790;2023-05-07T09:06:31;8.43;;;7.70;;
9372;SDS011;10838;52.350;9.790;2023-05-07T09:08:58;8.60;;;7.90;;
9372;SDS011;10838;52.350;9.790;2023-05-07T09:11:26;9.37;;;8.47;;
9372;SDS011;10838;52.350;9.790;2023-05-07T09:13:53;8.07;;;7.37;;
9372;SDS011;10838;52.350;9.790;2023-05-07T09:16:21;9.07;;;8.20;;
9372;SDS011;10838;52.350;9.790;2023-05-07T09:18:50;9.30;;;8.40;;
9372;SDS011;10838;52.350;9.790;2023-05-07T09:21:18;8.87;;;8.07;;
9372;SDS011;10838;52.350;9.790;2023-05-07T09:23:49;8.80;;;8.00;;
9372;SDS011;10838;52.350;9.790;2023-05-07T09:26:17;8.20;;;7.40;;
9372;SDS011;10838;52.350;9.790;2023-05-07T09:28:45;8.27;;;7.57;;
9372;SDS011;10838;52.350;9.790;2023-05-07T09:31:12;7.60;;;6.90;;
9372;SDS011;10838;52.350;9.790;2023-05-07T09:33:39;9.30;;;7.73;;
9372;SDS011;10838;52.350;9.790;2023-05-07T09:36:06;8.33;;;7.63;;
9372;SDS011;10838;52.350;9.790;2023-05-07T09:38:35;8.13;;;7.53;;
9372;SDS011;10838;52.350;9.790;2023-05-07T09:41:04;8.27;;;7.37;;
9372;SDS011;10838;52.350;9.790;2023-05-07T09:43:31;8.40;;;7.70;;
9372;SDS011;10838;52.350;9.790;2023-05-07T09:46:00;8.73;;;7.93;;
9372;SDS011;10838;52.350;9.790;2023-05-07T09:48:29;8.17;;;7.37;;
9372;SDS011;10838;52.350;9.790;2023-05-07T09:50:57;7.73;;;7.07;;
9372;SDS011;10838;52.350;9.790;2023-05-07T09:53:29;9.77;;;7.93;;
9372;SDS011;10838;52.350;9.790;2023-05-07T09:55:57;8.70;;;7.80;;
9372;SDS011;10838;52.350;9.790;2023-05-07T09:58:25;8.37;;;7.57;;
9372;SDS011;10838;52.350;9.790;2023-05-07T10:00:52;8.67;;;7.77;;
9372;SDS011;10838;52.350;9.790;2023-05-07T10:03:19;8.10;;;7.40;;
9372;SDS011;10838;52.350;9.790;2023-05-07T10:05:48;9.47;;;8.67;;
9372;SDS011;10838;52.350;9.790;2023-05-07T10:08:16;8.63;;;7.80;;
9372;SDS011;10838;52.350;9.790;2023-05-07T10:10:44;9.17;;;8.33;;
9372;SDS011;10838;52.350;9.790;2023-05-07T10:13:12;9.03;;;8.23;;
9372;SDS011;10838;52.350;9.790;2023-05-07T10:15:40;8.67;;;7.87;;
9372;SDS011;10838;52.350;9.790;2023-05-07T10:18:07;8.43;;;7.63;;
9372;SDS011;10838;52.350;9.790;2023-05-07T10:20:34;9.00;;;8.17;;
9372;SDS011;10838;52.350;9.790;2023-05-07T10:23:03;9.37;;;8.47;;
9372;SDS011;10838;52.350;9.790;2023-05-07T10:25:32;11.40;;;8.53;;
9372;SDS011;10838;52.350;9.790;2023-05-07T10:27:59;9.13;;;8.43;;
9372;SDS011;10838;52.350;9.790;2023-05-07T10:30:32;9.47;;;8.33;;
9372;SDS011;10838;52.350;9.790;2023-05-07T10:33:06;8.67;;;7.87;;
9372;SDS011;10838;52.350;9.790;2023-05-07T10:35:37;8.77;;;7.97;;
9372;SDS011;10838;52.350;9.790;2023-05-07T10:38:06;8.27;;;7.47;;
9372;SDS011;10838;52.350;9.790;2023-05-07T10:40:34;8.40;;;7.70;;
9372;SDS011;10838;52.350;9.790;2023-05-07T10:43:02;8.23;;;7.53;;
9372;SDS011;10838;52.350;9.790;2023-05-07T10:45:29;8.20;;;7.47;;
9372;SDS011;10838;52.350;9.790;2023-05-07T10:48:08;8.17;;;7.37;;
9372;SDS011;10838;52.350;9.790;2023-05-07T10:50:36;7.60;;;6.90;;
9372;SDS011;10838;52.350;9.790;2023-05-07T10:53:20;8.17;;;7.37;;
9372;SDS011;10838;52.350;9.790;2023-05-07T11:01:59;7.40;;;6.80;;
9372;SDS011;10838;52.350;9.790;2023-05-07T11:04:29;6.77;;;6.27;;
9372;SDS011;10838;52.350;9.790;2023-05-07T11:09:55;7.07;;;6.50;;
9372;SDS011;10838;52.350;9.790;2023-05-07T11:15:15;7.23;;;6.63;;
9372;SDS011;10838;52.350;9.790;2023-05-07T11:18:00;6.30;;;5.77;;
9372;SDS011;10838;52.350;9.790;2023-05-07T11:26:23;6.80;;;6.13;;
9372;SDS011;10838;52.350;9.790;2023-05-07T11:28:51;6.50;;;5.93;;
9372;SDS011;10838;52.350;9.790;2023-05-07T11:31:20;7.00;;;6.27;;
9372;SDS011;10838;52.350;9.790;2023-05-07T11:33:48;7.20;;;5.90;;
9372;SDS011;10838;52.350;9.790;2023-05-07T11:36:17;6.27;;;5.77;;
9372;SDS011;10838;52.350;9.790;2023-05-07T11:38:45;6.43;;;5.83;;
9372;SDS011;10838;52.350;9.790;2023-05-07T11:41:12;6.33;;;5.83;;
9372;SDS011;10838;52.350;9.790;2023-05-07T11:43:40;6.40;;;5.90;;
9372;SDS011;10838;52.350;9.790;2023-05-07T11:46:20;6.43;;;5.83;;
9372;SDS011;10838;52.350;9.790;2023-05-07T11:48:47;5.80;;;5.27;;
9372;SDS011;10838;52.350;9.790;2023-05-07T11:51:13;6.40;;;5.83;;
9372;SDS011;10838;52.350;9.790;2023-05-07T11:53:46;5.93;;;5.47;;
9372;SDS011;10838;52.350;9.790;2023-05-07T11:56:13;6.20;;;5.60;;
9372;SDS011;10838;52.350;9.790;2023-05-07T11:58:42;5.50;;;5.10;;
9372;SDS011;10838;52.350;9.790;2023-05-07T12:01:10;5.50;;;5.10;;
9372;SDS011;10838;52.350;9.790;2023-05-07T12:03:37;6.37;;;5.77;;
9372;SDS011;10838;52.350;9.790;2023-05-07T12:06:07;6.30;;;5.70;;
9372;SDS011;10838;52.350;9.790;2023-05-07T12:08:37;9.00;;;6.00;;
9372;SDS011;10838;52.350;9.790;2023-05-07T12:11:07;5.83;;;5.43;;
9372;SDS011;10838;52.350;9.790;2023-05-07T12:13:34;6.20;;;5.60;;
9372;SDS011;10838;52.350;9.790;2023-05-07T12:16:01;5.90;;;5.23;;
9372;SDS011;10838;52.350;9.790;2023-05-07T12:18:28;5.60;;;5.13;;
9372;SDS011;10838;52.350;9.790;2023-05-07T12:20:55;5.53;;;5.03;;
9372;SDS011;10838;52.350;9.790;2023-05-07T12:23:22;6.93;;;4.60;;
9372;SDS011;10838;52.350;9.790;2023-05-07T12:25:51;5.17;;;4.83;;
9372;SDS011;10838;52.350;9.790;2023-05-07T12:28:18;5.30;;;4.90;;
9372;SDS011;10838;52.350;9.790;2023-05-07T12:30:46;4.90;;;4.50;;
9372;SDS011;10838;52.350;9.790;2023-05-07T12:33:15;4.87;;;4.50;;
9372;SDS011;10838;52.350;9.790;2023-05-07T12:35:42;5.57;;;5.17;;
9372;SDS011;10838;52.350;9.790;2023-05-07T12:38:09;5.07;;;4.67;;
9372;SDS011;10838;52.350;9.790;2023-05-07T12:40:38;5.20;;;4.90;;
9372;SDS011;10838;52.350;9.790;2023-05-07T12:43:07;5.60;;;4.77;;
9372;SDS011;10838;52.350;9.790;2023-05-07T12:45:36;5.00;;;4.60;;
9372;SDS011;10838;52.350;9.790;2023-05-07T12:48:04;4.97;;;4.67;;
9372;SDS011;10838;52.350;9.790;2023-05-07T12:50:31;5.17;;;4.77;;
9372;SDS011;10838;52.350;9.790;2023-05-07T12:52:58;4.57;;;4.23;;
9372;SDS011;10838;52.350;9.790;2023-05-07T12:55:25;5.50;;;4.93;;
9372;SDS011;10838;52.350;9.790;2023-05-07T12:57:52;4.90;;;4.60;;
9372;SDS011;10838;52.350;9.790;2023-05-07T13:00:33;6.03;;;5.43;;
9372;SDS011;10838;52.350;9.790;2023-05-07T13:03:00;6.07;;;5.60;;
9372;SDS011;10838;52.350;9.790;2023-05-07T13:05:26;7.07;;;5.97;;
9372;SDS011;10838;52.350;9.790;2023-05-07T13:07:53;6.97;;;6.37;;
9372;SDS011;10838;52.350;9.790;2023-05-07T13:10:21;6.80;;;6.10;;
9372;SDS011;10838;52.350;9.790;2023-05-07T13:12:48;6.63;;;6.07;;
9372;SDS011;10838;52.350;9.790;2023-05-07T13:15:15;6.37;;;5.77;;
9372;SDS011;10838;52.350;9.790;2023-05-07T13:17:43;6.27;;;5.63;;
9372;SDS011;10838;52.350;9.790;2023-05-07T13:20:10;6.17;;;5.67;;
9372;SDS011;10838;52.350;9.790;2023-05-07T13:22:38;6.47;;;5.97;;
9372;SDS011;10838;52.350;9.790;2023-05-07T13:25:06;5.90;;;5.50;;
9372;SDS011;10838;52.350;9.790;2023-05-07T13:27:33;6.17;;;5.67;;
9372;SDS011;10838;52.350;9.790;2023-05-07T13:30:01;6.17;;;5.67;;
9372;SDS011;10838;52.350;9.790;2023-05-07T13:32:29;7.80;;;6.30;;
9372;SDS011;10838;52.350;9.790;2023-05-07T13:34:57;7.10;;;6.50;;
9372;SDS011;10838;52.350;9.790;2023-05-07T13:37:24;6.80;;;6.23;;
9372;SDS011;10838;52.350;9.790;2023-05-07T13:39:51;6.87;;;6.37;;
9372;SDS011;10838;52.350;9.790;2023-05-07T13:42:17;6.80;;;6.30;;
9372;SDS011;10838;52.350;9.790;2023-05-07T13:44:44;6.53;;;5.93;;
9372;SDS011;10838;52.350;9.790;2023-05-07T13:47:11;6.27;;;5.87;;
9372;SDS011;10838;52.350;9.790;2023-05-07T13:49:37;6.90;;;6.20;;
9372;SDS011;10838;52.350;9.790;2023-05-07T13:52:05;6.77;;;6.17;;
9372;SDS011;10838;52.350;9.790;2023-05-07T13:54:32;7.10;;;6.50;;
9372;SDS011;10838;52.350;9.790;2023-05-07T13:56:58;6.23;;;5.73;;
9372;SDS011;10838;52.350;9.790;2023-05-07T13:59:25;6.77;;;6.23;;
9372;SDS011;10838;52.350;9.790;2023-05-07T14:01:52;6.77;;;6.17;;
9372;SDS011;10838;52.350;9.790;2023-05-07T14:04:19;6.27;;;5.70;;
9372;SDS011;10838;52.350;9.790;2023-05-07T14:06:46;5.70;;;5.30;;
9372;SDS011;10838;52.350;9.790;2023-05-07T14:09:14;6.23;;;5.70;;
9372;SDS011;10838;52.350;9.790;2023-05-07T14:11:40;5.80;;;5.30;;
9372;SDS011;10838;52.350;9.790;2023-05-07T14:14:07;5.90;;;5.47;;
9372;SDS011;10838;52.350;9.790;2023-05-07T14:16:35;5.93;;;5.50;;
9372;SDS011;10838;52.350;9.790;2023-05-07T14:19:02;6.03;;;5.53;;
9372;SDS011;10838;52.350;9.790;2023-05-07T14:21:28;5.57;;;5.10;;
9372;SDS011;10838;52.350;9.790;2023-05-07T14:23:55;6.13;;;5.67;;
9372;SDS011;10838;52.350;9.790;2023-05-07T14:26:24;6.03;;;5.57;;
9372;SDS011;10838;52.350;9.790;2023-05-07T14:28:52;5.70;;;5.20;;
9372;SDS011;10838;52.350;9.790;2023-05-07T14:31:19;5.93;;;5.50;;
9372;SDS011;10838;52.350;9.790;2023-05-07T14:33:46;5.73;;;5.23;;
9372;SDS011;10838;52.350;9.790;2023-05-07T14:36:14;6.00;;;5.50;;
9372;SDS011;10838;52.350;9.790;2023-05-07T14:38:41;6.30;;;5.70;;
9372;SDS011;10838;52.350;9.790;2023-05-07T14:41:07;5.77;;;5.37;;
9372;SDS011;10838;52.350;9.790;2023-05-07T14:43:35;6.20;;;5.60;;
9372;SDS011;10838;52.350;9.790;2023-05-07T14:46:02;6.23;;;5.63;;
9372;SDS011;10838;52.350;9.790;2023-05-07T14:48:28;6.43;;;5.17;;
9372;SDS011;10838;52.350;9.790;2023-05-07T14:50:55;5.73;;;5.33;;
9372;SDS011;10838;52.350;9.790;2023-05-07T14:53:22;6.70;;;5.73;;
9372;SDS011;10838;52.350;9.790;2023-05-07T14:55:48;5.47;;;4.97;;
9372;SDS011;10838;52.350;9.790;2023-05-07T14:58:15;5.30;;;4.90;;
9372;SDS011;10838;52.350;9.790;2023-05-07T15:00:43;5.67;;;5.17;;
9372;SDS011;10838;52.350;9.790;2023-05-07T15:03:10;6.90;;;6.30;;
9372;SDS011;10838;52.350;9.790;2023-05-07T15:05:38;5.40;;;4.97;;
9372;SDS011;10838;52.350;9.790;2023-05-07T15:08:04;6.07;;;5.57;;
9372;SDS011;10838;52.350;9.790;2023-05-07T15:10:34;6.27;;;5.47;;
9372;SDS011;10838;52.350;9.790;2023-05-07T15:13:05;6.57;;;5.90;;
9372;SDS011;10838;52.350;9.790;2023-05-07T15:15:32;9.43;;;5.67;;